PWSweather.com
Personal Weather Stations
Station Observations
COOKEVILLE
Bilbrey Park, Cookeville, TN 38501

Bilbrey ParkCookeville, TN 38501

Lat: 36.174708, Lon: -85.463771

Elevation: 1102

Station Type: Davis Vantage Vue

http://www.cookevilleweatherguy.com

Latest ConditionsUpdated 2:30:04 PM CST Monday, Mar 2, 2015
Currently Today's Max Today's Min Today's Average
Temperature 45.3°F7.4°C 48.8°F9.3°C 33.1°F0.6°C 37.3°F2.9°C
Dew Point 34.6°F1.4°C 48.3°F9.1°C 32.3°F0.2°C 35.1°F1.7°C
Winds 2.0 mph N3.2 kmh N 12.0 mph NE19.3 kmh NE - 4.4 mph 7.1 kmh
Wind Gusts 7.0 mph11.3 kmh 16.0 mph25.7 kmh - -
Humidity 66% 100% 65% 92%
Pressure 30.35 in1027.8 mb 30.45 in1031.2 mb 30.29 in1025.7 mb -
Hour Temp Dew Point Humidity Winds Wind Gusts Pressure Precip Precip Rate Daily Precip Total
02:30 PM 45.3°F7.4°C 34.6°F1.4°C 66% 2.0 mph N3.2 kmh N 7.0 mph11.3 kmh 30.35 in1027.8 mb 0.00 in0.0 mm 0.00 in/hr0.0 mm/hr 0.09 in2.3 mm
02:25 PM 45.2°F7.3°C 34.2°F1.2°C 65% 4.0 mph N6.4 kmh N 6.0 mph9.7 kmh 30.35 in1027.8 mb 0.00 in0.0 mm 0.00 in/hr0.0 mm/hr 0.09 in2.3 mm
02:20 PM 45.3°F7.4°C 35.0°F1.7°C 67% 6.0 mph NNE9.7 kmh NNE 7.0 mph11.3 kmh 30.35 in1027.8 mb 0.00 in0.0 mm 0.00 in/hr0.0 mm/hr 0.09 in2.3 mm
02:15 PM 44.6°F7.0°C 34.7°F1.5°C 68% 3.0 mph NE4.8 kmh NE 7.0 mph11.3 kmh 30.35 in1027.8 mb 0.00 in0.0 mm 0.00 in/hr0.0 mm/hr 0.09 in2.3 mm
02:10 PM 44.3°F6.8°C 34.1°F1.2°C 67% 4.0 mph NNE6.4 kmh NNE 9.0 mph14.5 kmh 30.36 in1028.1 mb 0.00 in0.0 mm 0.00 in/hr0.0 mm/hr 0.09 in2.3 mm
02:05 PM 43.8°F6.6°C 33.9°F1.1°C 68% 3.0 mph NW4.8 kmh NW 5.0 mph8.0 kmh 30.36 in1028.1 mb 0.00 in0.0 mm 0.00 in/hr0.0 mm/hr 0.09 in2.3 mm
02:00 PM 43.5°F6.4°C 33.3°F0.7°C 67% 1.0 mph NE1.6 kmh NE 12.0 mph19.3 kmh 30.36 in1028.1 mb 0.00 in0.0 mm 0.00 in/hr0.0 mm/hr 0.09 in2.3 mm
01:55 PM 43.5°F6.4°C 34.0°F1.1°C 69% 5.0 mph N8.0 kmh N 6.0 mph9.7 kmh 30.35 in1027.8 mb 0.00 in0.0 mm 0.00 in/hr0.0 mm/hr 0.09 in2.3 mm
01:50 PM 43.4°F6.3°C 33.9°F1.1°C 69% 7.0 mph N11.3 kmh N 9.0 mph14.5 kmh 30.36 in1028.1 mb 0.00 in0.0 mm 0.00 in/hr0.0 mm/hr 0.09 in2.3 mm
01:45 PM 43.5°F6.4°C 33.7°F0.9°C 68% 3.0 mph NE4.8 kmh NE 9.0 mph14.5 kmh 30.36 in1028.1 mb 0.00 in0.0 mm 0.00 in/hr0.0 mm/hr 0.09 in2.3 mm
01:40 PM 43.3°F6.3°C 34.2°F1.2°C 70% 5.0 mph N8.0 kmh N 9.0 mph14.5 kmh 30.36 in1028.1 mb 0.00 in0.0 mm 0.00 in/hr0.0 mm/hr 0.09 in2.3 mm
01:35 PM 42.9°F6.1°C 33.8°F1.0°C 70% 7.0 mph NE11.3 kmh NE 9.0 mph14.5 kmh 30.37 in1028.4 mb 0.00 in0.0 mm 0.00 in/hr0.0 mm/hr 0.09 in2.3 mm
01:30 PM 42.8°F6.0°C 33.7°F0.9°C 70% 6.0 mph NE9.7 kmh NE 10.0 mph16.1 kmh 30.37 in1028.4 mb 0.00 in0.0 mm 0.00 in/hr0.0 mm/hr 0.09 in2.3 mm
01:25 PM 42.7°F5.9°C 34.3°F1.3°C 72% 8.0 mph NE12.9 kmh NE 9.0 mph14.5 kmh 30.37 in1028.4 mb 0.00 in0.0 mm 0.00 in/hr0.0 mm/hr 0.09 in2.3 mm
01:20 PM 42.5°F5.8°C 34.5°F1.4°C 73% 5.0 mph N8.0 kmh N 8.0 mph12.9 kmh 30.38 in1028.8 mb 0.00 in0.0 mm 0.00 in/hr0.0 mm/hr 0.09 in2.3 mm
01:15 PM 41.9°F5.5°C 34.6°F1.4°C 75% 5.0 mph NE8.0 kmh NE 6.0 mph9.7 kmh 30.38 in1028.8 mb 0.00 in0.0 mm 0.00 in/hr0.0 mm/hr 0.09 in2.3 mm
01:10 PM 41.7°F5.4°C 34.4°F1.3°C 75% 6.0 mph NE9.7 kmh NE 9.0 mph14.5 kmh 30.38 in1028.8 mb 0.00 in0.0 mm 0.00 in/hr0.0 mm/hr 0.09 in2.3 mm
01:05 PM 41.2°F5.1°C 34.2°F1.2°C 76% 1.0 mph ENE1.6 kmh ENE 6.0 mph9.7 kmh 30.38 in1028.8 mb 0.00 in0.0 mm 0.00 in/hr0.0 mm/hr 0.09 in2.3 mm
01:00 PM 41.1°F5.1°C 34.8°F1.6°C 78% 5.0 mph N8.0 kmh N 7.0 mph11.3 kmh 30.38 in1028.8 mb 0.00 in0.0 mm 0.00 in/hr0.0 mm/hr 0.09 in2.3 mm
12:55 PM 40.8°F4.9°C 34.5°F1.4°C 78% 4.0 mph NNE6.4 kmh NNE 6.0 mph9.7 kmh 30.39 in1029.1 mb 0.00 in0.0 mm 0.00 in/hr0.0 mm/hr 0.09 in2.3 mm
12:50 PM 40.6°F4.8°C 34.3°F1.3°C 78% 4.0 mph N6.4 kmh N 6.0 mph9.7 kmh 30.39 in1029.1 mb 0.00 in0.0 mm 0.00 in/hr0.0 mm/hr 0.09 in2.3 mm
12:45 PM 40.7°F4.8°C 34.4°F1.3°C 78% 4.0 mph NE6.4 kmh NE 6.0 mph9.7 kmh 30.39 in1029.1 mb 0.00 in0.0 mm 0.00 in/hr0.0 mm/hr 0.09 in2.3 mm
12:40 PM 40.6°F4.8°C 34.9°F1.6°C 80% 2.0 mph WNW3.2 kmh WNW 8.0 mph12.9 kmh 30.40 in1029.5 mb 0.00 in0.0 mm 0.00 in/hr0.0 mm/hr 0.09 in2.3 mm
12:35 PM 40.3°F4.6°C 34.3°F1.3°C 79% 6.0 mph NW9.7 kmh NW 8.0 mph12.9 kmh 30.40 in1029.5 mb 0.00 in0.0 mm 0.00 in/hr0.0 mm/hr 0.09 in2.3 mm
12:30 PM 40.1°F4.5°C 34.4°F1.3°C 80% 4.0 mph N6.4 kmh N 7.0 mph11.3 kmh 30.40 in1029.5 mb 0.00 in0.0 mm 0.00 in/hr0.0 mm/hr 0.09 in2.3 mm
12:25 PM 39.9°F4.4°C 33.9°F1.1°C 79% 5.0 mph NNE8.0 kmh NNE 6.0 mph9.7 kmh 30.41 in1029.8 mb 0.00 in0.0 mm 0.00 in/hr0.0 mm/hr 0.09 in2.3 mm
12:20 PM 39.5°F4.2°C 33.9°F1.1°C 80% 2.0 mph NE3.2 kmh NE 10.0 mph16.1 kmh 30.41 in1029.8 mb 0.00 in0.0 mm 0.00 in/hr0.0 mm/hr 0.09 in2.3 mm
12:15 PM 38.8°F3.8°C 33.5°F0.8°C 81% 2.0 mph E3.2 kmh E 10.0 mph16.1 kmh 30.41 in1029.8 mb 0.00 in0.0 mm 0.00 in/hr0.0 mm/hr 0.09 in2.3 mm
12:10 PM 38.4°F3.6°C 33.4°F0.8°C 82% 6.0 mph NNW9.7 kmh NNW 9.0 mph14.5 kmh 30.41 in1029.8 mb 0.00 in0.0 mm 0.00 in/hr0.0 mm/hr 0.09 in2.3 mm
12:05 PM 37.9°F3.3°C 33.2°F0.7°C 83% 3.0 mph NE4.8 kmh NE 8.0 mph12.9 kmh 30.41 in1029.8 mb 0.00 in0.0 mm 0.00 in/hr0.0 mm/hr 0.09 in2.3 mm
12:00 PM 37.6°F3.1°C 32.9°F0.5°C 83% 3.0 mph NNE4.8 kmh NNE 9.0 mph14.5 kmh 30.41 in1029.8 mb 0.00 in0.0 mm 0.00 in/hr0.0 mm/hr 0.09 in2.3 mm
11:55 AM 37.3°F2.9°C 32.9°F0.5°C 84% 5.0 mph NNW8.0 kmh NNW 9.0 mph14.5 kmh 30.42 in1030.1 mb 0.00 in0.0 mm 0.00 in/hr0.0 mm/hr 0.09 in2.3 mm
11:50 AM 37.3°F2.9°C 32.9°F0.5°C 84% 7.0 mph NNE11.3 kmh NNE 8.0 mph12.9 kmh 30.42 in1030.1 mb 0.00 in0.0 mm 0.00 in/hr0.0 mm/hr 0.09 in2.3 mm
11:45 AM 37.2°F2.9°C 32.8°F0.4°C 84% 4.0 mph NNE6.4 kmh NNE 8.0 mph12.9 kmh 30.42 in1030.1 mb 0.00 in0.0 mm 0.00 in/hr0.0 mm/hr 0.09 in2.3 mm
11:40 AM 37.0°F2.8°C 32.9°F0.5°C 85% 5.0 mph NE8.0 kmh NE 10.0 mph16.1 kmh 30.43 in1030.5 mb 0.00 in0.0 mm 0.00 in/hr0.0 mm/hr 0.09 in2.3 mm
11:35 AM 36.8°F2.7°C 32.7°F0.4°C 85% 4.0 mph NE6.4 kmh NE 10.0 mph16.1 kmh 30.43 in1030.5 mb 0.00 in0.0 mm 0.00 in/hr0.0 mm/hr 0.09 in2.3 mm
11:30 AM 36.6°F2.6°C 33.1°F0.6°C 87% 8.0 mph NE12.9 kmh NE 12.0 mph19.3 kmh 30.43 in1030.5 mb 0.00 in0.0 mm 0.00 in/hr0.0 mm/hr 0.09 in2.3 mm
11:25 AM 36.5°F2.5°C 33.6°F0.9°C 89% 5.0 mph N8.0 kmh N 11.0 mph17.7 kmh 30.44 in1030.8 mb 0.00 in0.0 mm 0.00 in/hr0.0 mm/hr 0.09 in2.3 mm
11:20 AM 36.3°F2.4°C 33.1°F0.6°C 88% 5.0 mph NE8.0 kmh NE 12.0 mph19.3 kmh 30.43 in1030.5 mb 0.00 in0.0 mm 0.00 in/hr0.0 mm/hr 0.09 in2.3 mm
11:15 AM 36.2°F2.3°C 33.3°F0.7°C 89% 4.0 mph NE6.4 kmh NE 8.0 mph12.9 kmh 30.44 in1030.8 mb 0.00 in0.0 mm 0.00 in/hr0.0 mm/hr 0.09 in2.3 mm
11:10 AM 35.9°F2.2°C 33.5°F0.8°C 91% 6.0 mph NNE9.7 kmh NNE 10.0 mph16.1 kmh 30.44 in1030.8 mb 0.00 in0.0 mm 0.00 in/hr0.0 mm/hr 0.09 in2.3 mm
11:05 AM 35.7°F2.1°C 33.1°F0.6°C 90% 8.0 mph N12.9 kmh N 10.0 mph16.1 kmh 30.45 in1031.2 mb 0.00 in0.0 mm 0.00 in/hr0.0 mm/hr 0.09 in2.3 mm
11:00 AM 35.7°F2.1°C 33.3°F0.7°C 91% 4.0 mph N6.4 kmh N 12.0 mph19.3 kmh 30.45 in1031.2 mb 0.00 in0.0 mm 0.00 in/hr0.0 mm/hr 0.09 in2.3 mm
10:55 AM 35.5°F1.9°C 33.1°F0.6°C 91% 4.0 mph N6.4 kmh N 12.0 mph19.3 kmh 30.45 in1031.2 mb 0.00 in0.0 mm 0.00 in/hr0.0 mm/hr 0.09 in2.3 mm
10:50 AM 35.3°F1.8°C 32.9°F0.5°C 91% 7.0 mph NE11.3 kmh NE 12.0 mph19.3 kmh 30.45 in1031.2 mb 0.00 in0.0 mm 0.00 in/hr0.0 mm/hr 0.09 in2.3 mm
10:45 AM 35.1°F1.7°C 32.7°F0.4°C 91% 5.0 mph NNE8.0 kmh NNE 11.0 mph17.7 kmh 30.45 in1031.2 mb 0.00 in0.0 mm 0.00 in/hr0.0 mm/hr 0.09 in2.3 mm
10:40 AM 35.1°F1.7°C 33.0°F0.6°C 92% 7.0 mph NE11.3 kmh NE 11.0 mph17.7 kmh 30.45 in1031.2 mb 0.00 in0.0 mm 0.00 in/hr0.0 mm/hr 0.09 in2.3 mm
10:35 AM 34.8°F1.6°C 32.7°F0.4°C 92% 4.0 mph N6.4 kmh N 11.0 mph17.7 kmh 30.45 in1031.2 mb 0.00 in0.0 mm 0.00 in/hr0.0 mm/hr 0.09 in2.3 mm
10:30 AM 34.7°F1.5°C 32.4°F0.2°C 91% 3.0 mph NE4.8 kmh NE 11.0 mph17.7 kmh 30.45 in1031.2 mb 0.00 in0.0 mm 0.00 in/hr0.0 mm/hr 0.09 in2.3 mm
10:25 AM 34.8°F1.6°C 32.7°F0.4°C 92% 7.0 mph NNE11.3 kmh NNE 10.0 mph16.1 kmh 30.45 in1031.2 mb 0.00 in0.0 mm 0.00 in/hr0.0 mm/hr 0.09 in2.3 mm
10:20 AM 34.9°F1.6°C 33.1°F0.6°C 93% 5.0 mph N8.0 kmh N 11.0 mph17.7 kmh 30.45 in1031.2 mb 0.00 in0.0 mm 0.00 in/hr0.0 mm/hr 0.09 in2.3 mm
10:15 AM 34.7°F1.5°C 32.6°F0.3°C 92% 5.0 mph NNE8.0 kmh NNE 11.0 mph17.7 kmh 30.45 in1031.2 mb 0.00 in0.0 mm 0.00 in/hr0.0 mm/hr 0.09 in2.3 mm
10:10 AM 34.7°F1.5°C 32.6°F0.3°C 92% 4.0 mph NE6.4 kmh NE 12.0 mph19.3 kmh 30.45 in1031.2 mb 0.00 in0.0 mm 0.00 in/hr0.0 mm/hr 0.09 in2.3 mm
10:05 AM 34.8°F1.6°C 33.0°F0.6°C 93% 4.0 mph N6.4 kmh N 7.0 mph11.3 kmh 30.45 in1031.2 mb 0.00 in0.0 mm 0.00 in/hr0.0 mm/hr 0.09 in2.3 mm
10:00 AM 34.7°F1.5°C 32.9°F0.5°C 93% 4.0 mph N6.4 kmh N 9.0 mph14.5 kmh 30.45 in1031.2 mb 0.00 in0.0 mm 0.00 in/hr0.0 mm/hr 0.09 in2.3 mm
09:55 AM 34.5°F1.4°C 32.7°F0.4°C 93% 4.0 mph N6.4 kmh N 9.0 mph14.5 kmh 30.45 in1031.2 mb 0.00 in0.0 mm 0.00 in/hr0.0 mm/hr 0.09 in2.3 mm
09:50 AM 34.5°F1.4°C 33.0°F0.6°C 94% 8.0 mph N12.9 kmh N 8.0 mph12.9 kmh 30.45 in1031.2 mb 0.00 in0.0 mm 0.00 in/hr0.0 mm/hr 0.09 in2.3 mm
09:45 AM 34.5°F1.4°C 33.0°F0.6°C 94% 4.0 mph N6.4 kmh N 6.0 mph9.7 kmh 30.45 in1031.2 mb 0.00 in0.0 mm 0.00 in/hr0.0 mm/hr 0.09 in2.3 mm
09:40 AM 34.3°F1.3°C 32.8°F0.4°C 94% 5.0 mph N8.0 kmh N 8.0 mph12.9 kmh 30.45 in1031.2 mb 0.00 in0.0 mm 0.00 in/hr0.0 mm/hr 0.09 in2.3 mm
09:35 AM 34.2°F1.2°C 32.9°F0.5°C 95% 4.0 mph NNE6.4 kmh NNE 8.0 mph12.9 kmh 30.45 in1031.2 mb 0.00 in0.0 mm 0.00 in/hr0.0 mm/hr 0.09 in2.3 mm
09:30 AM 34.0°F1.1°C 32.7°F0.4°C 95% 6.0 mph N9.7 kmh N 9.0 mph14.5 kmh 30.45 in1031.2 mb 0.00 in0.0 mm 0.00 in/hr0.0 mm/hr 0.09 in2.3 mm
09:25 AM 33.8°F1.0°C 32.5°F0.3°C 95% 4.0 mph NNE6.4 kmh NNE 9.0 mph14.5 kmh 30.45 in1031.2 mb 0.00 in0.0 mm 0.00 in/hr0.0 mm/hr 0.09 in2.3 mm
09:20 AM 33.8°F1.0°C 32.8°F0.4°C 96% 4.0 mph N6.4 kmh N 8.0 mph12.9 kmh 30.45 in1031.2 mb 0.00 in0.0 mm 0.00 in/hr0.0 mm/hr 0.09 in2.3 mm
09:15 AM 33.9°F1.1°C 32.9°F0.5°C 96% 6.0 mph N9.7 kmh N 6.0 mph9.7 kmh 30.45 in1031.2 mb 0.00 in0.0 mm 0.00 in/hr0.0 mm/hr 0.09 in2.3 mm
09:10 AM 33.7°F0.9°C 32.7°F0.4°C 96% 3.0 mph NNE4.8 kmh NNE 9.0 mph14.5 kmh 30.44 in1030.8 mb 0.00 in0.0 mm 0.00 in/hr0.0 mm/hr 0.09 in2.3 mm
09:05 AM 33.4°F0.8°C 32.4°F0.2°C 96% 3.0 mph NE4.8 kmh NE 9.0 mph14.5 kmh 30.44 in1030.8 mb 0.00 in0.0 mm 0.00 in/hr0.0 mm/hr 0.09 in2.3 mm
09:00 AM 33.3°F0.7°C 32.3°F0.2°C 96% 8.0 mph ENE12.9 kmh ENE 14.0 mph22.5 kmh 30.44 in1030.8 mb 0.00 in0.0 mm 0.00 in/hr0.0 mm/hr 0.09 in2.3 mm
08:55 AM 33.2°F0.7°C 32.4°F0.2°C 97% 6.0 mph NE9.7 kmh NE 9.0 mph14.5 kmh 30.45 in1031.2 mb 0.00 in0.0 mm 0.00 in/hr0.0 mm/hr 0.09 in2.3 mm
08:50 AM 33.1°F0.6°C 32.3°F0.2°C 97% 5.0 mph NNE8.0 kmh NNE 16.0 mph25.7 kmh 30.44 in1030.8 mb 0.00 in0.0 mm 0.00 in/hr0.0 mm/hr 0.09 in2.3 mm
08:45 AM 33.1°F0.6°C 32.3°F0.2°C 97% 4.0 mph NE6.4 kmh NE 13.0 mph20.9 kmh 30.44 in1030.8 mb 0.00 in0.0 mm 0.00 in/hr0.0 mm/hr 0.09 in2.3 mm
08:40 AM 33.3°F0.7°C 32.5°F0.3°C 97% 6.0 mph NE9.7 kmh NE 7.0 mph11.3 kmh 30.44 in1030.8 mb 0.00 in0.0 mm 0.00 in/hr0.0 mm/hr 0.09 in2.3 mm
08:35 AM 33.2°F0.7°C 32.4°F0.2°C 97% 3.0 mph NE4.8 kmh NE 6.0 mph9.7 kmh 30.45 in1031.2 mb 0.00 in0.0 mm 0.00 in/hr0.0 mm/hr 0.09 in2.3 mm
08:30 AM 33.2°F0.7°C 32.4°F0.2°C 97% 3.0 mph NNE4.8 kmh NNE 9.0 mph14.5 kmh 30.45 in1031.2 mb 0.00 in0.0 mm 0.00 in/hr0.0 mm/hr 0.09 in2.3 mm
08:25 AM 33.1°F0.6°C 32.3°F0.2°C 97% 5.0 mph N8.0 kmh N 9.0 mph14.5 kmh 30.44 in1030.8 mb 0.00 in0.0 mm 0.00 in/hr0.0 mm/hr 0.09 in2.3 mm
08:20 AM 33.1°F0.6°C 32.3°F0.2°C 97% 5.0 mph NNE8.0 kmh NNE 12.0 mph19.3 kmh 30.44 in1030.8 mb 0.00 in0.0 mm 0.00 in/hr0.0 mm/hr 0.09 in2.3 mm
08:15 AM 33.2°F0.7°C 32.4°F0.2°C 97% 7.0 mph NE11.3 kmh NE 12.0 mph19.3 kmh 30.43 in1030.5 mb 0.00 in0.0 mm 0.00 in/hr0.0 mm/hr 0.09 in2.3 mm
08:10 AM 33.3°F0.7°C 32.5°F0.3°C 97% 9.0 mph NNE14.5 kmh NNE 13.0 mph20.9 kmh 30.43 in1030.5 mb 0.00 in0.0 mm 0.00 in/hr0.0 mm/hr 0.09 in2.3 mm
08:05 AM 33.4°F0.8°C 32.6°F0.3°C 97% 12.0 mph NE19.3 kmh NE 12.0 mph19.3 kmh 30.43 in1030.5 mb 0.00 in0.0 mm 0.00 in/hr0.0 mm/hr 0.09 in2.3 mm
08:00 AM 33.3°F0.7°C 32.5°F0.3°C 97% 6.0 mph NE9.7 kmh NE 14.0 mph22.5 kmh 30.43 in1030.5 mb 0.00 in0.0 mm 0.00 in/hr0.0 mm/hr 0.09 in2.3 mm
07:55 AM 33.2°F0.7°C 32.4°F0.2°C 97% 9.0 mph NNE14.5 kmh NNE 14.0 mph22.5 kmh 30.42 in1030.1 mb 0.00 in0.0 mm 0.00 in/hr0.0 mm/hr 0.09 in2.3 mm
07:50 AM 33.3°F0.7°C 32.5°F0.3°C 97% 6.0 mph N9.7 kmh N 10.0 mph16.1 kmh 30.43 in1030.5 mb 0.00 in0.0 mm 0.00 in/hr0.0 mm/hr 0.09 in2.3 mm
07:45 AM 33.2°F0.7°C 32.4°F0.2°C 97% 5.0 mph N8.0 kmh N 10.0 mph16.1 kmh 30.43 in1030.5 mb 0.00 in0.0 mm 0.00 in/hr0.0 mm/hr 0.09 in2.3 mm
07:35 AM 33.2°F0.7°C 32.4°F0.2°C 97% 3.0 mph N4.8 kmh N 7.0 mph11.3 kmh 30.43 in1030.5 mb 0.00 in0.0 mm 0.00 in/hr0.0 mm/hr 0.09 in2.3 mm
07:30 AM 34.0°F1.1°C 34.0°F1.1°C 100% 3.0 mph NNW4.8 kmh NNW 3.0 mph4.8 kmh 30.44 in1030.8 mb 0.00 in0.0 mm 0.00 in/hr0.0 mm/hr 0.09 in2.3 mm
07:25 AM 34.0°F1.1°C 34.0°F1.1°C 100% 3.0 mph NNW4.8 kmh NNW 3.0 mph4.8 kmh 30.44 in1030.8 mb 0.00 in0.0 mm 0.00 in/hr0.0 mm/hr 0.09 in2.3 mm
07:20 AM 34.0°F1.1°C 34.0°F1.1°C 100% 3.0 mph NNW4.8 kmh NNW 3.0 mph4.8 kmh 30.44 in1030.8 mb 0.00 in0.0 mm 0.00 in/hr0.0 mm/hr 0.09 in2.3 mm
07:15 AM 34.0°F1.1°C 34.0°F1.1°C 100% 3.0 mph NNW4.8 kmh NNW 3.0 mph4.8 kmh 30.44 in1030.8 mb 0.00 in0.0 mm 0.00 in/hr0.0 mm/hr 0.09 in2.3 mm
07:10 AM 34.0°F1.1°C 34.0°F1.1°C 100% 3.0 mph NNW4.8 kmh NNW 3.0 mph4.8 kmh 30.43 in1030.5 mb 0.00 in0.0 mm 0.00 in/hr0.0 mm/hr 0.09 in2.3 mm
07:05 AM 34.0°F1.1°C 34.0°F1.1°C 100% 3.0 mph NNW4.8 kmh NNW 3.0 mph4.8 kmh 30.43 in1030.5 mb 0.00 in0.0 mm 0.00 in/hr0.0 mm/hr 0.09 in2.3 mm
07:00 AM 34.0°F1.1°C 34.0°F1.1°C 100% 3.0 mph NNW4.8 kmh NNW 3.0 mph4.8 kmh 30.43 in1030.5 mb 0.00 in0.0 mm 0.00 in/hr0.0 mm/hr 0.09 in2.3 mm
06:55 AM 34.0°F1.1°C 34.0°F1.1°C 100% 3.0 mph NNW4.8 kmh NNW 3.0 mph4.8 kmh 30.43 in1030.5 mb 0.00 in0.0 mm 0.00 in/hr0.0 mm/hr 0.09 in2.3 mm
06:50 AM 34.0°F1.1°C 34.0°F1.1°C 100% 3.0 mph NNW4.8 kmh NNW 3.0 mph4.8 kmh 30.43 in1030.5 mb 0.00 in0.0 mm 0.00 in/hr0.0 mm/hr 0.09 in2.3 mm
06:45 AM 34.0°F1.1°C 34.0°F1.1°C 100% 3.0 mph NNW4.8 kmh NNW 3.0 mph4.8 kmh 30.42 in1030.1 mb 0.00 in0.0 mm 0.00 in/hr0.0 mm/hr 0.09 in2.3 mm
06:40 AM 34.0°F1.1°C 34.0°F1.1°C 100% 3.0 mph NNW4.8 kmh NNW 3.0 mph4.8 kmh 30.42 in1030.1 mb 0.00 in0.0 mm 0.00 in/hr0.0 mm/hr 0.09 in2.3 mm
06:35 AM 34.0°F1.1°C 34.0°F1.1°C 100% 3.0 mph NNW4.8 kmh NNW 3.0 mph4.8 kmh 30.42 in1030.1 mb 0.00 in0.0 mm 0.00 in/hr0.0 mm/hr 0.09 in2.3 mm
06:30 AM 34.0°F1.1°C 34.0°F1.1°C 100% 3.0 mph NNW4.8 kmh NNW 3.0 mph4.8 kmh 30.42 in1030.1 mb 0.00 in0.0 mm 0.00 in/hr0.0 mm/hr 0.09 in2.3 mm
06:25 AM 34.0°F1.1°C 34.0°F1.1°C 100% 3.0 mph NNW4.8 kmh NNW 3.0 mph4.8 kmh 30.42 in1030.1 mb 0.00 in0.0 mm 0.00 in/hr0.0 mm/hr 0.09 in2.3 mm
06:20 AM 34.0°F1.1°C 34.0°F1.1°C 100% 3.0 mph NNW4.8 kmh NNW 3.0 mph4.8 kmh 30.42 in1030.1 mb 0.00 in0.0 mm 0.00 in/hr0.0 mm/hr 0.09 in2.3 mm
06:15 AM 34.0°F1.1°C 34.0°F1.1°C 100% 3.0 mph NNW4.8 kmh NNW 3.0 mph4.8 kmh 30.42 in1030.1 mb 0.00 in0.0 mm 0.00 in/hr0.0 mm/hr 0.09 in2.3 mm
06:10 AM 34.0°F1.1°C 34.0°F1.1°C 100% 3.0 mph NNW4.8 kmh NNW 3.0 mph4.8 kmh 30.42 in1030.1 mb 0.00 in0.0 mm 0.00 in/hr0.0 mm/hr 0.09 in2.3 mm
06:05 AM 34.0°F1.1°C 34.0°F1.1°C 100% 3.0 mph NNW4.8 kmh NNW 3.0 mph4.8 kmh 30.41 in1029.8 mb 0.00 in0.0 mm 0.00 in/hr0.0 mm/hr 0.09 in2.3 mm
06:00 AM 34.0°F1.1°C 34.0°F1.1°C 100% 3.0 mph NNW4.8 kmh NNW 3.0 mph4.8 kmh 30.42 in1030.1 mb 0.00 in0.0 mm 0.00 in/hr0.0 mm/hr 0.09 in2.3 mm
05:55 AM 34.0°F1.1°C 34.0°F1.1°C 100% 3.0 mph NNW4.8 kmh NNW 3.0 mph4.8 kmh 30.42 in1030.1 mb 0.00 in0.0 mm 0.00 in/hr0.0 mm/hr 0.09 in2.3 mm
05:50 AM 34.0°F1.1°C 34.0°F1.1°C 100% 3.0 mph NNW4.8 kmh NNW 3.0 mph4.8 kmh 30.41 in1029.8 mb 0.00 in0.0 mm 0.00 in/hr0.0 mm/hr 0.09 in2.3 mm
05:45 AM 34.0°F1.1°C 34.0°F1.1°C 100% 3.0 mph NNW4.8 kmh NNW 3.0 mph4.8 kmh 30.41 in1029.8 mb 0.00 in0.0 mm 0.00 in/hr0.0 mm/hr 0.09 in2.3 mm
05:40 AM 34.0°F1.1°C 34.0°F1.1°C 100% 3.0 mph NNW4.8 kmh NNW 3.0 mph4.8 kmh 30.40 in1029.5 mb 0.00 in0.0 mm 0.00 in/hr0.0 mm/hr 0.09 in2.3 mm
05:35 AM 34.0°F1.1°C 34.0°F1.1°C 100% 3.0 mph NNW4.8 kmh NNW 3.0 mph4.8 kmh 30.40 in1029.5 mb 0.00 in0.0 mm 0.00 in/hr0.0 mm/hr 0.09 in2.3 mm
05:30 AM 34.0°F1.1°C 34.0°F1.1°C 100% 3.0 mph NNW4.8 kmh NNW 3.0 mph4.8 kmh 30.40 in1029.5 mb 0.00 in0.0 mm 0.00 in/hr0.0 mm/hr 0.09 in2.3 mm
05:25 AM 34.0°F1.1°C 34.0°F1.1°C 100% 3.0 mph NNW4.8 kmh NNW 3.0 mph4.8 kmh 30.40 in1029.5 mb 0.00 in0.0 mm 0.00 in/hr0.0 mm/hr 0.09 in2.3 mm
05:20 AM 34.0°F1.1°C 34.0°F1.1°C 100% 3.0 mph NNW4.8 kmh NNW 3.0 mph4.8 kmh 30.40 in1029.5 mb 0.00 in0.0 mm 0.00 in/hr0.0 mm/hr 0.09 in2.3 mm
05:15 AM 34.0°F1.1°C 34.0°F1.1°C 100% 3.0 mph NNW4.8 kmh NNW 3.0 mph4.8 kmh 30.40 in1029.5 mb 0.00 in0.0 mm 0.00 in/hr0.0 mm/hr 0.09 in2.3 mm
05:10 AM 34.0°F1.1°C 34.0°F1.1°C 100% 3.0 mph NNW4.8 kmh NNW 5.0 mph8.0 kmh 30.40 in1029.5 mb 0.00 in0.0 mm 0.00 in/hr0.0 mm/hr 0.09 in2.3 mm
05:05 AM 34.0°F1.1°C 34.0°F1.1°C 100% 3.0 mph NNW4.8 kmh NNW 5.0 mph8.0 kmh 30.40 in1029.5 mb 0.00 in0.0 mm 0.00 in/hr0.0 mm/hr 0.09 in2.3 mm
05:00 AM 34.4°F1.3°C 33.6°F0.9°C 97% 5.0 mph NW8.0 kmh NW 7.0 mph11.3 kmh 30.40 in1029.5 mb 0.00 in0.0 mm 0.00 in/hr0.0 mm/hr 0.09 in2.3 mm
04:55 AM 34.4°F1.3°C 33.6°F0.9°C 97% 4.0 mph NNW6.4 kmh NNW 7.0 mph11.3 kmh 30.40 in1029.5 mb 0.00 in0.0 mm 0.00 in/hr0.0 mm/hr 0.09 in2.3 mm
04:50 AM 34.4°F1.3°C 33.6°F0.9°C 97% 5.0 mph NW8.0 kmh NW 12.0 mph19.3 kmh 30.40 in1029.5 mb 0.00 in0.0 mm 0.00 in/hr0.0 mm/hr 0.09 in2.3 mm
04:45 AM 34.5°F1.4°C 33.7°F0.9°C 97% 4.0 mph N6.4 kmh N 12.0 mph19.3 kmh 30.39 in1029.1 mb 0.00 in0.0 mm 0.00 in/hr0.0 mm/hr 0.09 in2.3 mm
04:40 AM 34.7°F1.5°C 33.9°F1.1°C 97% 5.0 mph NNW8.0 kmh NNW 8.0 mph12.9 kmh 30.39 in1029.1 mb 0.00 in0.0 mm 0.00 in/hr0.0 mm/hr 0.09 in2.3 mm
04:35 AM 34.8°F1.6°C 34.0°F1.1°C 97% 5.0 mph NNE8.0 kmh NNE 7.0 mph11.3 kmh 30.39 in1029.1 mb 0.00 in0.0 mm 0.00 in/hr0.0 mm/hr 0.09 in2.3 mm
04:30 AM 34.9°F1.6°C 34.1°F1.2°C 97% 5.0 mph NNE8.0 kmh NNE 11.0 mph17.7 kmh 30.39 in1029.1 mb 0.00 in0.0 mm 0.00 in/hr0.0 mm/hr 0.09 in2.3 mm
04:25 AM 35.2°F1.8°C 34.4°F1.3°C 97% 5.0 mph N8.0 kmh N 11.0 mph17.7 kmh 30.38 in1028.8 mb 0.00 in0.0 mm 0.00 in/hr0.0 mm/hr 0.09 in2.3 mm
04:20 AM 35.8°F2.1°C 35.0°F1.7°C 97% 9.0 mph N14.5 kmh N 12.0 mph19.3 kmh 30.38 in1028.8 mb 0.00 in0.0 mm 0.00 in/hr0.0 mm/hr 0.09 in2.3 mm
04:15 AM 36.4°F2.4°C 35.6°F2.0°C 97% 5.0 mph N8.0 kmh N 11.0 mph17.7 kmh 30.37 in1028.4 mb 0.00 in0.0 mm 0.00 in/hr0.0 mm/hr 0.09 in2.3 mm
04:10 AM 36.5°F2.5°C 35.7°F2.1°C 97% 5.0 mph NW8.0 kmh NW 11.0 mph17.7 kmh 30.37 in1028.4 mb 0.00 in0.0 mm 0.00 in/hr0.0 mm/hr 0.09 in2.3 mm
04:05 AM 36.6°F2.6°C 35.8°F2.1°C 97% 5.0 mph N8.0 kmh N 10.0 mph16.1 kmh 30.36 in1028.1 mb 0.00 in0.0 mm 0.00 in/hr0.0 mm/hr 0.09 in2.3 mm
04:00 AM 36.7°F2.6°C 35.9°F2.2°C 97% 8.0 mph NW12.9 kmh NW 11.0 mph17.7 kmh 30.37 in1028.4 mb 0.01 in0.3 mm 0.00 in/hr0.0 mm/hr 0.09 in2.3 mm
03:55 AM 36.7°F2.6°C 35.9°F2.2°C 97% 4.0 mph NNW6.4 kmh NNW 10.0 mph16.1 kmh 30.36 in1028.1 mb 0.01 in0.3 mm 0.00 in/hr0.0 mm/hr 0.09 in2.3 mm
03:50 AM 36.8°F2.7°C 36.0°F2.2°C 97% 3.0 mph N4.8 kmh N 9.0 mph14.5 kmh 30.36 in1028.1 mb 0.02 in0.5 mm 0.00 in/hr0.0 mm/hr 0.09 in2.3 mm
03:45 AM 36.9°F2.7°C 36.1°F2.3°C 97% 5.0 mph NW8.0 kmh NW 9.0 mph14.5 kmh 30.36 in1028.1 mb 0.02 in0.5 mm 0.00 in/hr0.0 mm/hr 0.09 in2.3 mm
03:40 AM 37.0°F2.8°C 36.2°F2.3°C 97% 2.0 mph N3.2 kmh N 5.0 mph8.0 kmh 30.35 in1027.8 mb 0.02 in0.5 mm 0.00 in/hr0.0 mm/hr 0.09 in2.3 mm
03:35 AM 37.1°F2.8°C 36.3°F2.4°C 97% 4.0 mph N6.4 kmh N 5.0 mph8.0 kmh 30.35 in1027.8 mb 0.02 in0.5 mm 0.00 in/hr0.0 mm/hr 0.09 in2.3 mm
03:30 AM 37.1°F2.8°C 36.3°F2.4°C 97% 3.0 mph NW4.8 kmh NW 7.0 mph11.3 kmh 30.35 in1027.8 mb 0.02 in0.5 mm 0.00 in/hr0.0 mm/hr 0.09 in2.3 mm
03:25 AM 37.1°F2.8°C 36.3°F2.4°C 97% 3.0 mph WNW4.8 kmh WNW 5.0 mph8.0 kmh 30.34 in1027.4 mb 0.02 in0.5 mm 0.00 in/hr0.0 mm/hr 0.09 in2.3 mm
03:20 AM 37.1°F2.8°C 36.3°F2.4°C 97% 3.0 mph NNW4.8 kmh NNW 9.0 mph14.5 kmh 30.34 in1027.4 mb 0.03 in0.8 mm 0.00 in/hr0.0 mm/hr 0.09 in2.3 mm
03:15 AM 37.2°F2.9°C 36.4°F2.4°C 97% 4.0 mph N6.4 kmh N 9.0 mph14.5 kmh 30.34 in1027.4 mb 0.03 in0.8 mm 0.00 in/hr0.0 mm/hr 0.09 in2.3 mm
03:10 AM 37.3°F2.9°C 36.5°F2.5°C 97% 4.0 mph NW6.4 kmh NW 11.0 mph17.7 kmh 30.34 in1027.4 mb 0.03 in0.8 mm 0.00 in/hr0.0 mm/hr 0.09 in2.3 mm
03:05 AM 37.4°F3.0°C 36.6°F2.6°C 97% 4.0 mph NNW6.4 kmh NNW 8.0 mph12.9 kmh 30.34 in1027.4 mb 0.03 in0.8 mm 0.12 in/hr3.0 mm/hr 0.09 in2.3 mm
03:00 AM 37.4°F3.0°C 36.6°F2.6°C 97% 3.0 mph NNW4.8 kmh NNW 5.0 mph8.0 kmh 30.33 in1027.1 mb 0.02 in0.5 mm 0.00 in/hr0.0 mm/hr 0.08 in2.0 mm
02:55 AM 37.4°F3.0°C 36.6°F2.6°C 97% 3.0 mph NNW4.8 kmh NNW 5.0 mph8.0 kmh 30.33 in1027.1 mb 0.02 in0.5 mm 0.00 in/hr0.0 mm/hr 0.08 in2.0 mm
02:50 AM 37.5°F3.1°C 36.7°F2.6°C 97% 2.0 mph NNW3.2 kmh NNW 6.0 mph9.7 kmh 30.33 in1027.1 mb 0.02 in0.5 mm 0.00 in/hr0.0 mm/hr 0.08 in2.0 mm
02:45 AM 37.6°F3.1°C 36.8°F2.7°C 97% 3.0 mph NNW4.8 kmh NNW 6.0 mph9.7 kmh 30.33 in1027.1 mb 0.02 in0.5 mm 0.12 in/hr3.0 mm/hr 0.08 in2.0 mm
02:40 AM 37.7°F3.2°C 36.9°F2.7°C 97% 3.0 mph NW4.8 kmh NW 6.0 mph9.7 kmh 30.33 in1027.1 mb 0.01 in0.3 mm 0.00 in/hr0.0 mm/hr 0.07 in1.8 mm
02:35 AM 37.8°F3.2°C 37.0°F2.8°C 97% 4.0 mph N6.4 kmh N 6.0 mph9.7 kmh 30.33 in1027.1 mb 0.01 in0.3 mm 0.00 in/hr0.0 mm/hr 0.07 in1.8 mm
02:30 AM 37.9°F3.3°C 37.1°F2.8°C 97% 2.0 mph N3.2 kmh N 7.0 mph11.3 kmh 30.33 in1027.1 mb 0.01 in0.3 mm 0.00 in/hr0.0 mm/hr 0.07 in1.8 mm
02:25 AM 38.0°F3.3°C 37.2°F2.9°C 97% 6.0 mph N9.7 kmh N 6.0 mph9.7 kmh 30.33 in1027.1 mb 0.01 in0.3 mm 0.12 in/hr3.0 mm/hr 0.07 in1.8 mm
02:20 AM 38.1°F3.4°C 37.3°F2.9°C 97% 3.0 mph NW4.8 kmh NW 6.0 mph9.7 kmh 30.33 in1027.1 mb 0.00 in0.0 mm 0.00 in/hr0.0 mm/hr 0.06 in1.5 mm
02:15 AM 38.2°F3.4°C 37.4°F3.0°C 97% 3.0 mph N4.8 kmh N 6.0 mph9.7 kmh 30.33 in1027.1 mb 0.00 in0.0 mm 0.00 in/hr0.0 mm/hr 0.06 in1.5 mm
02:10 AM 38.3°F3.5°C 37.5°F3.1°C 97% 4.0 mph NNW6.4 kmh NNW 9.0 mph14.5 kmh 30.33 in1027.1 mb 0.00 in0.0 mm 0.00 in/hr0.0 mm/hr 0.06 in1.5 mm
02:05 AM 38.3°F3.5°C 37.5°F3.1°C 97% 1.0 mph NNW1.6 kmh NNW 9.0 mph14.5 kmh 30.33 in1027.1 mb 0.00 in0.0 mm 0.00 in/hr0.0 mm/hr 0.06 in1.5 mm
02:00 AM 38.4°F3.6°C 37.6°F3.1°C 97% 4.0 mph N6.4 kmh N 10.0 mph16.1 kmh 30.33 in1027.1 mb 0.00 in0.0 mm 0.00 in/hr0.0 mm/hr 0.06 in1.5 mm
01:55 AM 38.7°F3.7°C 37.9°F3.3°C 97% 4.0 mph WNW6.4 kmh WNW 10.0 mph16.1 kmh 30.33 in1027.1 mb 0.00 in0.0 mm 0.00 in/hr0.0 mm/hr 0.06 in1.5 mm
01:50 AM 38.8°F3.8°C 38.0°F3.3°C 97% 3.0 mph NW4.8 kmh NW 11.0 mph17.7 kmh 30.33 in1027.1 mb 0.01 in0.3 mm 0.00 in/hr0.0 mm/hr 0.06 in1.5 mm
01:45 AM 39.1°F3.9°C 38.3°F3.5°C 97% 4.0 mph NNW6.4 kmh NNW 11.0 mph17.7 kmh 30.34 in1027.4 mb 0.01 in0.3 mm 0.00 in/hr0.0 mm/hr 0.06 in1.5 mm
01:40 AM 39.3°F4.1°C 38.5°F3.6°C 97% 7.0 mph NW11.3 kmh NW 8.0 mph12.9 kmh 30.33 in1027.1 mb 0.01 in0.3 mm 0.00 in/hr0.0 mm/hr 0.06 in1.5 mm
01:35 AM 39.5°F4.2°C 38.7°F3.7°C 97% 3.0 mph NNW4.8 kmh NNW 8.0 mph12.9 kmh 30.33 in1027.1 mb 0.01 in0.3 mm 0.00 in/hr0.0 mm/hr 0.06 in1.5 mm
01:30 AM 39.7°F4.3°C 38.9°F3.8°C 97% 6.0 mph NW9.7 kmh NW 8.0 mph12.9 kmh 30.33 in1027.1 mb 0.01 in0.3 mm 0.00 in/hr0.0 mm/hr 0.06 in1.5 mm
01:25 AM 39.8°F4.3°C 39.0°F3.9°C 97% 4.0 mph NNW6.4 kmh NNW 7.0 mph11.3 kmh 30.33 in1027.1 mb 0.01 in0.3 mm 0.00 in/hr0.0 mm/hr 0.06 in1.5 mm
01:20 AM 39.9°F4.4°C 39.1°F3.9°C 97% 3.0 mph N4.8 kmh N 8.0 mph12.9 kmh 30.33 in1027.1 mb 0.01 in0.3 mm 0.00 in/hr0.0 mm/hr 0.06 in1.5 mm
01:15 AM 40.0°F4.4°C 39.2°F4.0°C 97% 5.0 mph NW8.0 kmh NW 8.0 mph12.9 kmh 30.32 in1026.8 mb 0.01 in0.3 mm 0.00 in/hr0.0 mm/hr 0.06 in1.5 mm
01:10 AM 40.2°F4.6°C 39.4°F4.1°C 97% 6.0 mph NW9.7 kmh NW 9.0 mph14.5 kmh 30.32 in1026.8 mb 0.02 in0.5 mm 0.00 in/hr0.0 mm/hr 0.06 in1.5 mm
01:05 AM 40.4°F4.7°C 39.6°F4.2°C 97% 5.0 mph NW8.0 kmh NW 9.0 mph14.5 kmh 30.32 in1026.8 mb 0.02 in0.5 mm 0.00 in/hr0.0 mm/hr 0.06 in1.5 mm
01:00 AM 40.6°F4.8°C 39.8°F4.3°C 97% 6.0 mph NW9.7 kmh NW 14.0 mph22.5 kmh 30.33 in1027.1 mb 0.03 in0.8 mm 0.00 in/hr0.0 mm/hr 0.06 in1.5 mm
12:55 AM 40.8°F4.9°C 40.0°F4.4°C 97% 5.0 mph NW8.0 kmh NW 14.0 mph22.5 kmh 30.32 in1026.8 mb 0.03 in0.8 mm 0.12 in/hr3.0 mm/hr 0.06 in1.5 mm
12:50 AM 41.1°F5.1°C 40.3°F4.6°C 97% 8.0 mph N12.9 kmh N 12.0 mph19.3 kmh 30.32 in1026.8 mb 0.02 in0.5 mm 0.00 in/hr0.0 mm/hr 0.05 in1.3 mm
12:45 AM 41.3°F5.2°C 40.3°F4.6°C 96% 4.0 mph N6.4 kmh N 12.0 mph19.3 kmh 30.32 in1026.8 mb 0.02 in0.5 mm 0.00 in/hr0.0 mm/hr 0.05 in1.3 mm
12:40 AM 41.7°F5.4°C 40.7°F4.8°C 96% 6.0 mph NW9.7 kmh NW 8.0 mph12.9 kmh 30.32 in1026.8 mb 0.03 in0.8 mm 0.00 in/hr0.0 mm/hr 0.05 in1.3 mm
12:35 AM 42.2°F5.7°C 41.1°F5.1°C 96% 8.0 mph NW12.9 kmh NW 8.0 mph12.9 kmh 30.31 in1026.4 mb 0.03 in0.8 mm 0.00 in/hr0.0 mm/hr 0.05 in1.3 mm
12:30 AM 42.7°F5.9°C 41.6°F5.3°C 96% 7.0 mph N11.3 kmh N 9.0 mph14.5 kmh 30.31 in1026.4 mb 0.03 in0.8 mm 0.00 in/hr0.0 mm/hr 0.05 in1.3 mm
12:25 AM 43.6°F6.4°C 42.3°F5.7°C 95% 5.0 mph N8.0 kmh N 9.0 mph14.5 kmh 30.31 in1026.4 mb 0.03 in0.8 mm 0.00 in/hr0.0 mm/hr 0.05 in1.3 mm
12:20 AM 45.3°F7.4°C 43.7°F6.5°C 94% 6.0 mph NE9.7 kmh NE 13.0 mph20.9 kmh 30.31 in1026.4 mb 0.05 in1.3 mm 0.00 in/hr0.0 mm/hr 0.05 in1.3 mm
12:15 AM 48.5°F9.2°C 48.0°F8.9°C 98% 11.0 mph N17.7 kmh N 13.0 mph20.9 kmh 30.30 in1026.1 mb 0.05 in1.3 mm 0.00 in/hr0.0 mm/hr 0.05 in1.3 mm
12:10 AM 48.8°F9.3°C 48.3°F9.1°C 98% 2.0 mph WSW3.2 kmh WSW 4.0 mph6.4 kmh 30.30 in1026.1 mb 0.05 in1.3 mm 0.12 in/hr3.0 mm/hr 0.05 in1.3 mm
12:05 AM 48.8°F9.3°C 48.3°F9.1°C 98% 1.0 mph SSW1.6 kmh SSW 2.0 mph3.2 kmh 30.29 in1025.7 mb 0.04 in1.0 mm 0.00 in/hr0.0 mm/hr 0.04 in1.0 mm
12:00 AM 48.8°F9.3°C 48.3°F9.1°C 98% 2.0 mph SW3.2 kmh SW 6.0 mph9.7 kmh 30.29 in1025.7 mb 0.04 in1.0 mm 0.00 in/hr0.0 mm/hr 0.04 in1.0 mm